sensor_id;sensor_type;location;lat;lon;timestamp;P1;durP1;ratioP1;P2;durP2;ratioP2
17725;SDS011;8983;53.156;17.960;2023-04-19T00:01:48;6.50;;;3.83;;
17725;SDS011;8983;53.156;17.960;2023-04-19T00:04:16;6.40;;;4.00;;
17725;SDS011;8983;53.156;17.960;2023-04-19T00:06:44;9.80;;;4.10;;
17725;SDS011;8983;53.156;17.960;2023-04-19T00:09:12;9.03;;;4.27;;
17725;SDS011;8983;53.156;17.960;2023-04-19T00:11:42;6.97;;;3.77;;
17725;SDS011;8983;53.156;17.960;2023-04-19T00:14:10;10.23;;;4.20;;
17725;SDS011;8983;53.156;17.960;2023-04-19T00:16:38;7.07;;;3.70;;
17725;SDS011;8983;53.156;17.960;2023-04-19T00:19:07;7.13;;;4.07;;
17725;SDS011;8983;53.156;17.960;2023-04-19T00:21:35;7.93;;;4.43;;
17725;SDS011;8983;53.156;17.960;2023-04-19T00:24:04;5.90;;;3.90;;
17725;SDS011;8983;53.156;17.960;2023-04-19T00:26:32;7.00;;;4.07;;
17725;SDS011;8983;53.156;17.960;2023-04-19T00:29:01;8.67;;;4.13;;
17725;SDS011;8983;53.156;17.960;2023-04-19T00:31:30;6.13;;;3.90;;
17725;SDS011;8983;53.156;17.960;2023-04-19T00:33:58;6.83;;;4.23;;
17725;SDS011;8983;53.156;17.960;2023-04-19T00:36:27;7.07;;;3.90;;
17725;SDS011;8983;53.156;17.960;2023-04-19T00:38:56;4.37;;;3.60;;
17725;SDS011;8983;53.156;17.960;2023-04-19T00:41:24;8.47;;;4.00;;
17725;SDS011;8983;53.156;17.960;2023-04-19T00:43:52;7.73;;;4.00;;
17725;SDS011;8983;53.156;17.960;2023-04-19T00:46:21;7.03;;;4.03;;
17725;SDS011;8983;53.156;17.960;2023-04-19T00:48:50;6.80;;;4.00;;
17725;SDS011;8983;53.156;17.960;2023-04-19T00:51:18;5.80;;;3.87;;
17725;SDS011;8983;53.156;17.960;2023-04-19T00:53:46;8.67;;;3.90;;
17725;SDS011;8983;53.156;17.960;2023-04-19T00:56:15;8.07;;;4.13;;
17725;SDS011;8983;53.156;17.960;2023-04-19T00:58:44;5.90;;;3.70;;
17725;SDS011;8983;53.156;17.960;2023-04-19T01:01:13;7.10;;;3.73;;
17725;SDS011;8983;53.156;17.960;2023-04-19T01:03:42;7.83;;;4.07;;
17725;SDS011;8983;53.156;17.960;2023-04-19T01:06:11;8.13;;;4.30;;
17725;SDS011;8983;53.156;17.960;2023-04-19T01:08:39;5.53;;;3.40;;
17725;SDS011;8983;53.156;17.960;2023-04-19T01:11:07;5.67;;;3.43;;
17725;SDS011;8983;53.156;17.960;2023-04-19T01:13:36;7.40;;;3.67;;
17725;SDS011;8983;53.156;17.960;2023-04-19T01:16:04;5.90;;;3.50;;
17725;SDS011;8983;53.156;17.960;2023-04-19T01:18:33;5.47;;;3.50;;
17725;SDS011;8983;53.156;17.960;2023-04-19T01:21:04;5.10;;;3.57;;
17725;SDS011;8983;53.156;17.960;2023-04-19T01:23:35;6.30;;;3.67;;
17725;SDS011;8983;53.156;17.960;2023-04-19T01:26:04;8.33;;;3.60;;
17725;SDS011;8983;53.156;17.960;2023-04-19T01:28:32;7.80;;;3.50;;
17725;SDS011;8983;53.156;17.960;2023-04-19T01:31:01;8.03;;;4.00;;
17725;SDS011;8983;53.156;17.960;2023-04-19T01:33:29;10.07;;;4.07;;
17725;SDS011;8983;53.156;17.960;2023-04-19T01:35:57;6.77;;;3.63;;
17725;SDS011;8983;53.156;17.960;2023-04-19T01:38:25;5.77;;;3.70;;
17725;SDS011;8983;53.156;17.960;2023-04-19T01:40:54;7.77;;;3.53;;
17725;SDS011;8983;53.156;17.960;2023-04-19T01:43:22;6.87;;;3.50;;
17725;SDS011;8983;53.156;17.960;2023-04-19T01:45:50;8.33;;;3.80;;
17725;SDS011;8983;53.156;17.960;2023-04-19T01:48:18;5.73;;;3.43;;
17725;SDS011;8983;53.156;17.960;2023-04-19T01:50:46;4.33;;;3.20;;
17725;SDS011;8983;53.156;17.960;2023-04-19T01:53:14;4.90;;;3.60;;
17725;SDS011;8983;53.156;17.960;2023-04-19T01:55:43;6.30;;;3.40;;
17725;SDS011;8983;53.156;17.960;2023-04-19T01:58:12;5.07;;;3.40;;
17725;SDS011;8983;53.156;17.960;2023-04-19T02:00:41;12.40;;;3.30;;
17725;SDS011;8983;53.156;17.960;2023-04-19T02:03:09;5.70;;;3.10;;
17725;SDS011;8983;53.156;17.960;2023-04-19T02:05:37;5.80;;;3.10;;
17725;SDS011;8983;53.156;17.960;2023-04-19T02:08:06;5.30;;;3.50;;
17725;SDS011;8983;53.156;17.960;2023-04-19T02:10:34;8.73;;;3.50;;
17725;SDS011;8983;53.156;17.960;2023-04-19T02:13:02;7.03;;;4.07;;
17725;SDS011;8983;53.156;17.960;2023-04-19T02:15:31;6.93;;;3.43;;
17725;SDS011;8983;53.156;17.960;2023-04-19T02:17:59;6.07;;;3.40;;
17725;SDS011;8983;53.156;17.960;2023-04-19T02:20:27;5.07;;;3.13;;
17725;SDS011;8983;53.156;17.960;2023-04-19T02:22:56;3.93;;;3.33;;
17725;SDS011;8983;53.156;17.960;2023-04-19T02:25:24;5.80;;;3.50;;
17725;SDS011;8983;53.156;17.960;2023-04-19T02:27:52;5.80;;;3.70;;
17725;SDS011;8983;53.156;17.960;2023-04-19T02:30:20;5.33;;;3.30;;
17725;SDS011;8983;53.156;17.960;2023-04-19T02:32:50;6.57;;;3.73;;
17725;SDS011;8983;53.156;17.960;2023-04-19T02:35:20;5.27;;;3.10;;
17725;SDS011;8983;53.156;17.960;2023-04-19T02:37:48;5.63;;;3.50;;
17725;SDS011;8983;53.156;17.960;2023-04-19T02:40:16;6.50;;;3.73;;
17725;SDS011;8983;53.156;17.960;2023-04-19T02:42:45;5.23;;;3.40;;
17725;SDS011;8983;53.156;17.960;2023-04-19T02:45:13;4.80;;;3.53;;
17725;SDS011;8983;53.156;17.960;2023-04-19T02:47:41;6.83;;;3.37;;
17725;SDS011;8983;53.156;17.960;2023-04-19T02:50:10;6.50;;;3.60;;
17725;SDS011;8983;53.156;17.960;2023-04-19T02:52:39;4.97;;;3.10;;
17725;SDS011;8983;53.156;17.960;2023-04-19T02:55:07;6.13;;;3.10;;
17725;SDS011;8983;53.156;17.960;2023-04-19T02:57:36;6.33;;;3.60;;
17725;SDS011;8983;53.156;17.960;2023-04-19T03:00:04;4.70;;;3.20;;
17725;SDS011;8983;53.156;17.960;2023-04-19T03:02:35;4.07;;;2.90;;
17725;SDS011;8983;53.156;17.960;2023-04-19T03:05:05;6.10;;;3.20;;
17725;SDS011;8983;53.156;17.960;2023-04-19T03:07:35;7.60;;;3.40;;
17725;SDS011;8983;53.156;17.960;2023-04-19T03:10:03;9.03;;;3.60;;
17725;SDS011;8983;53.156;17.960;2023-04-19T03:12:32;6.37;;;3.60;;
17725;SDS011;8983;53.156;17.960;2023-04-19T03:15:01;9.73;;;3.53;;
17725;SDS011;8983;53.156;17.960;2023-04-19T03:17:29;8.37;;;4.10;;
17725;SDS011;8983;53.156;17.960;2023-04-19T03:19:57;4.57;;;3.60;;
17725;SDS011;8983;53.156;17.960;2023-04-19T03:22:25;8.67;;;3.90;;
17725;SDS011;8983;53.156;17.960;2023-04-19T03:24:55;3.50;;;3.20;;
17725;SDS011;8983;53.156;17.960;2023-04-19T03:27:23;10.03;;;3.77;;
17725;SDS011;8983;53.156;17.960;2023-04-19T03:29:51;6.07;;;3.70;;
17725;SDS011;8983;53.156;17.960;2023-04-19T03:32:19;7.97;;;4.07;;
17725;SDS011;8983;53.156;17.960;2023-04-19T03:34:47;6.80;;;3.50;;
17725;SDS011;8983;53.156;17.960;2023-04-19T03:37:15;8.97;;;3.93;;
17725;SDS011;8983;53.156;17.960;2023-04-19T03:39:43;7.13;;;3.13;;
17725;SDS011;8983;53.156;17.960;2023-04-19T03:42:13;7.37;;;3.70;;
17725;SDS011;8983;53.156;17.960;2023-04-19T03:44:41;8.80;;;4.47;;
17725;SDS011;8983;53.156;17.960;2023-04-19T03:47:09;4.40;;;3.20;;
17725;SDS011;8983;53.156;17.960;2023-04-19T03:49:37;6.80;;;3.80;;
17725;SDS011;8983;53.156;17.960;2023-04-19T03:52:05;9.03;;;4.13;;
17725;SDS011;8983;53.156;17.960;2023-04-19T03:54:33;8.57;;;4.30;;
17725;SDS011;8983;53.156;17.960;2023-04-19T03:57:01;9.93;;;4.53;;
17725;SDS011;8983;53.156;17.960;2023-04-19T03:59:31;5.77;;;4.00;;
17725;SDS011;8983;53.156;17.960;2023-04-19T04:01:59;7.60;;;4.27;;
17725;SDS011;8983;53.156;17.960;2023-04-19T04:04:27;5.40;;;3.70;;
17725;SDS011;8983;53.156;17.960;2023-04-19T04:06:56;5.20;;;3.97;;
17725;SDS011;8983;53.156;17.960;2023-04-19T04:09:24;6.73;;;3.63;;
17725;SDS011;8983;53.156;17.960;2023-04-19T04:11:52;7.47;;;4.80;;
17725;SDS011;8983;53.156;17.960;2023-04-19T04:14:20;6.27;;;4.23;;
17725;SDS011;8983;53.156;17.960;2023-04-19T04:16:49;7.20;;;4.40;;
17725;SDS011;8983;53.156;17.960;2023-04-19T04:19:17;10.73;;;5.07;;
17725;SDS011;8983;53.156;17.960;2023-04-19T04:21:47;8.87;;;4.40;;
17725;SDS011;8983;53.156;17.960;2023-04-19T04:24:15;8.27;;;5.10;;
17725;SDS011;8983;53.156;17.960;2023-04-19T04:26:45;8.53;;;4.97;;
17725;SDS011;8983;53.156;17.960;2023-04-19T04:29:15;7.60;;;4.47;;
17725;SDS011;8983;53.156;17.960;2023-04-19T04:31:43;8.60;;;4.70;;
17725;SDS011;8983;53.156;17.960;2023-04-19T04:34:13;9.07;;;4.67;;
17725;SDS011;8983;53.156;17.960;2023-04-19T04:36:41;7.17;;;4.17;;
17725;SDS011;8983;53.156;17.960;2023-04-19T04:39:09;7.93;;;4.60;;
17725;SDS011;8983;53.156;17.960;2023-04-19T04:41:38;7.03;;;3.87;;
17725;SDS011;8983;53.156;17.960;2023-04-19T04:44:07;5.83;;;4.10;;
17725;SDS011;8983;53.156;17.960;2023-04-19T04:46:48;8.23;;;4.00;;
17725;SDS011;8983;53.156;17.960;2023-04-19T04:49:18;9.70;;;4.33;;
17725;SDS011;8983;53.156;17.960;2023-04-19T04:51:46;7.83;;;4.10;;
17725;SDS011;8983;53.156;17.960;2023-04-19T04:54:14;7.03;;;4.37;;
17725;SDS011;8983;53.156;17.960;2023-04-19T04:56:42;7.50;;;4.37;;
17725;SDS011;8983;53.156;17.960;2023-04-19T04:59:11;7.40;;;4.30;;
17725;SDS011;8983;53.156;17.960;2023-04-19T05:01:39;8.90;;;4.63;;
17725;SDS011;8983;53.156;17.960;2023-04-19T05:04:07;7.53;;;4.20;;
17725;SDS011;8983;53.156;17.960;2023-04-19T05:06:37;6.93;;;3.90;;
17725;SDS011;8983;53.156;17.960;2023-04-19T05:09:06;5.97;;;4.47;;
17725;SDS011;8983;53.156;17.960;2023-04-19T05:11:34;10.20;;;4.03;;
17725;SDS011;8983;53.156;17.960;2023-04-19T05:14:02;5.43;;;4.20;;
17725;SDS011;8983;53.156;17.960;2023-04-19T05:16:31;8.03;;;4.53;;
17725;SDS011;8983;53.156;17.960;2023-04-19T05:18:59;5.40;;;3.83;;
17725;SDS011;8983;53.156;17.960;2023-04-19T05:21:27;5.27;;;4.10;;
17725;SDS011;8983;53.156;17.960;2023-04-19T05:23:57;5.23;;;3.97;;
17725;SDS011;8983;53.156;17.960;2023-04-19T05:26:25;5.00;;;3.50;;
17725;SDS011;8983;53.156;17.960;2023-04-19T05:28:53;7.07;;;3.83;;
17725;SDS011;8983;53.156;17.960;2023-04-19T05:31:22;8.63;;;3.60;;
17725;SDS011;8983;53.156;17.960;2023-04-19T05:33:50;7.03;;;3.70;;
17725;SDS011;8983;53.156;17.960;2023-04-19T05:36:18;6.03;;;3.87;;
17725;SDS011;8983;53.156;17.960;2023-04-19T05:38:46;6.97;;;3.67;;
17725;SDS011;8983;53.156;17.960;2023-04-19T05:41:16;6.00;;;3.70;;
17725;SDS011;8983;53.156;17.960;2023-04-19T05:43:44;4.87;;;3.67;;
17725;SDS011;8983;53.156;17.960;2023-04-19T05:46:12;8.57;;;3.80;;
17725;SDS011;8983;53.156;17.960;2023-04-19T05:48:40;5.43;;;3.57;;
17725;SDS011;8983;53.156;17.960;2023-04-19T05:51:08;6.70;;;3.97;;
17725;SDS011;8983;53.156;17.960;2023-04-19T05:53:36;9.83;;;4.17;;
17725;SDS011;8983;53.156;17.960;2023-04-19T05:56:04;6.37;;;4.00;;
17725;SDS011;8983;53.156;17.960;2023-04-19T05:58:34;6.03;;;3.63;;
17725;SDS011;8983;53.156;17.960;2023-04-19T06:01:02;6.30;;;4.07;;
17725;SDS011;8983;53.156;17.960;2023-04-19T06:03:31;6.00;;;3.57;;
17725;SDS011;8983;53.156;17.960;2023-04-19T06:06:00;5.33;;;4.07;;
17725;SDS011;8983;53.156;17.960;2023-04-19T06:08:28;7.13;;;3.87;;
17725;SDS011;8983;53.156;17.960;2023-04-19T06:10:57;6.80;;;4.10;;
17725;SDS011;8983;53.156;17.960;2023-04-19T06:13:42;7.00;;;3.63;;
17725;SDS011;8983;53.156;17.960;2023-04-19T06:16:10;6.77;;;3.93;;
17725;SDS011;8983;53.156;17.960;2023-04-19T06:18:38;6.80;;;3.60;;
17725;SDS011;8983;53.156;17.960;2023-04-19T06:21:08;11.63;;;3.90;;
17725;SDS011;8983;53.156;17.960;2023-04-19T06:23:36;7.53;;;4.20;;
17725;SDS011;8983;53.156;17.960;2023-04-19T06:26:04;7.50;;;3.77;;
17725;SDS011;8983;53.156;17.960;2023-04-19T06:28:32;7.40;;;4.07;;
17725;SDS011;8983;53.156;17.960;2023-04-19T06:31:02;6.13;;;3.87;;
17725;SDS011;8983;53.156;17.960;2023-04-19T06:33:31;6.97;;;3.77;;
17725;SDS011;8983;53.156;17.960;2023-04-19T06:35:59;8.00;;;3.77;;
17725;SDS011;8983;53.156;17.960;2023-04-19T06:38:28;9.30;;;4.40;;
17725;SDS011;8983;53.156;17.960;2023-04-19T06:40:56;6.63;;;3.77;;
17725;SDS011;8983;53.156;17.960;2023-04-19T06:43:24;5.17;;;3.97;;
17725;SDS011;8983;53.156;17.960;2023-04-19T06:45:56;7.60;;;3.80;;
17725;SDS011;8983;53.156;17.960;2023-04-19T06:48:26;5.70;;;3.87;;
17725;SDS011;8983;53.156;17.960;2023-04-19T06:50:54;6.80;;;4.63;;
17725;SDS011;8983;53.156;17.960;2023-04-19T06:53:22;6.77;;;3.73;;
17725;SDS011;8983;53.156;17.960;2023-04-19T06:55:56;10.67;;;4.63;;
17725;SDS011;8983;53.156;17.960;2023-04-19T06:58:26;7.93;;;4.23;;
17725;SDS011;8983;53.156;17.960;2023-04-19T07:00:54;10.07;;;4.30;;
17725;SDS011;8983;53.156;17.960;2023-04-19T07:03:22;9.50;;;4.20;;
17725;SDS011;8983;53.156;17.960;2023-04-19T07:05:52;9.67;;;4.10;;
17725;SDS011;8983;53.156;17.960;2023-04-19T07:08:22;5.90;;;3.97;;
17725;SDS011;8983;53.156;17.960;2023-04-19T07:10:57;7.27;;;4.30;;
17725;SDS011;8983;53.156;17.960;2023-04-19T07:13:25;7.07;;;3.93;;
17725;SDS011;8983;53.156;17.960;2023-04-19T07:15:53;8.27;;;3.93;;
17725;SDS011;8983;53.156;17.960;2023-04-19T07:18:21;8.83;;;4.67;;
17725;SDS011;8983;53.156;17.960;2023-04-19T07:20:50;8.03;;;4.60;;
17725;SDS011;8983;53.156;17.960;2023-04-19T07:23:20;6.13;;;3.87;;
17725;SDS011;8983;53.156;17.960;2023-04-19T07:25:48;7.20;;;4.47;;
17725;SDS011;8983;53.156;17.960;2023-04-19T07:28:16;5.77;;;4.30;;
17725;SDS011;8983;53.156;17.960;2023-04-19T07:30:44;10.77;;;4.83;;
17725;SDS011;8983;53.156;17.960;2023-04-19T07:33:12;9.00;;;4.80;;
17725;SDS011;8983;53.156;17.960;2023-04-19T07:35:40;7.10;;;4.80;;
17725;SDS011;8983;53.156;17.960;2023-04-19T07:38:09;6.77;;;4.87;;
17725;SDS011;8983;53.156;17.960;2023-04-19T07:40:37;10.27;;;5.30;;
17725;SDS011;8983;53.156;17.960;2023-04-19T07:43:05;9.10;;;5.07;;
17725;SDS011;8983;53.156;17.960;2023-04-19T07:45:34;8.47;;;5.80;;
17725;SDS011;8983;53.156;17.960;2023-04-19T07:48:02;11.97;;;6.17;;
17725;SDS011;8983;53.156;17.960;2023-04-19T07:50:30;25.00;;;8.30;;
17725;SDS011;8983;53.156;17.960;2023-04-19T07:52:58;25.77;;;9.83;;
17725;SDS011;8983;53.156;17.960;2023-04-19T07:55:27;21.27;;;7.87;;
17725;SDS011;8983;53.156;17.960;2023-04-19T07:57:56;13.53;;;6.70;;
17725;SDS011;8983;53.156;17.960;2023-04-19T08:00:24;16.27;;;7.30;;
17725;SDS011;8983;53.156;17.960;2023-04-19T08:02:52;20.10;;;7.73;;
17725;SDS011;8983;53.156;17.960;2023-04-19T08:05:20;32.13;;;10.57;;
17725;SDS011;8983;53.156;17.960;2023-04-19T08:07:50;19.03;;;6.27;;
17725;SDS011;8983;53.156;17.960;2023-04-19T08:10:18;9.43;;;5.90;;
17725;SDS011;8983;53.156;17.960;2023-04-19T08:12:49;11.17;;;5.30;;
17725;SDS011;8983;53.156;17.960;2023-04-19T08:15:31;7.50;;;5.07;;
17725;SDS011;8983;53.156;17.960;2023-04-19T08:18:02;7.87;;;4.77;;
17725;SDS011;8983;53.156;17.960;2023-04-19T08:20:31;12.97;;;5.77;;
17725;SDS011;8983;53.156;17.960;2023-04-19T08:22:59;8.70;;;5.70;;
17725;SDS011;8983;53.156;17.960;2023-04-19T08:25:39;8.43;;;5.70;;
17725;SDS011;8983;53.156;17.960;2023-04-19T08:28:09;11.40;;;6.07;;
17725;SDS011;8983;53.156;17.960;2023-04-19T08:30:38;11.00;;;5.13;;
17725;SDS011;8983;53.156;17.960;2023-04-19T08:33:06;15.23;;;6.33;;
17725;SDS011;8983;53.156;17.960;2023-04-19T08:35:36;14.27;;;7.03;;
17725;SDS011;8983;53.156;17.960;2023-04-19T08:38:06;17.17;;;6.80;;
17725;SDS011;8983;53.156;17.960;2023-04-19T08:40:34;16.63;;;6.40;;
17725;SDS011;8983;53.156;17.960;2023-04-19T08:43:04;12.70;;;6.57;;
17725;SDS011;8983;53.156;17.960;2023-04-19T08:45:34;11.33;;;6.40;;
17725;SDS011;8983;53.156;17.960;2023-04-19T08:48:03;13.93;;;7.53;;
17725;SDS011;8983;53.156;17.960;2023-04-19T08:50:32;19.93;;;8.53;;
17725;SDS011;8983;53.156;17.960;2023-04-19T08:53:17;19.97;;;8.43;;
17725;SDS011;8983;53.156;17.960;2023-04-19T08:55:51;16.63;;;7.97;;
17725;SDS011;8983;53.156;17.960;2023-04-19T08:58:43;10.50;;;6.00;;
17725;SDS011;8983;53.156;17.960;2023-04-19T09:01:15;10.87;;;6.43;;
17725;SDS011;8983;53.156;17.960;2023-04-19T09:03:47;13.00;;;6.57;;
17725;SDS011;8983;53.156;17.960;2023-04-19T09:06:34;10.37;;;5.53;;
17725;SDS011;8983;53.156;17.960;2023-04-19T09:11:50;10.93;;;5.83;;
17725;SDS011;8983;53.156;17.960;2023-04-19T09:14:19;7.53;;;5.80;;
17725;SDS011;8983;53.156;17.960;2023-04-19T09:16:49;9.13;;;5.43;;
17725;SDS011;8983;53.156;17.960;2023-04-19T09:19:18;11.43;;;5.97;;
17725;SDS011;8983;53.156;17.960;2023-04-19T09:21:50;9.83;;;5.70;;
17725;SDS011;8983;53.156;17.960;2023-04-19T09:24:26;17.10;;;8.60;;
17725;SDS011;8983;53.156;17.960;2023-04-19T09:27:25;17.00;;;8.20;;
17725;SDS011;8983;53.156;17.960;2023-04-19T09:29:54;14.97;;;6.97;;
17725;SDS011;8983;53.156;17.960;2023-04-19T09:32:24;15.17;;;7.33;;
17725;SDS011;8983;53.156;17.960;2023-04-19T09:34:53;9.80;;;6.27;;
17725;SDS011;8983;53.156;17.960;2023-04-19T09:37:22;11.60;;;6.20;;
17725;SDS011;8983;53.156;17.960;2023-04-19T09:40:23;12.93;;;6.63;;
17725;SDS011;8983;53.156;17.960;2023-04-19T09:42:53;8.13;;;5.63;;
17725;SDS011;8983;53.156;17.960;2023-04-19T09:45:25;10.60;;;5.97;;
17725;SDS011;8983;53.156;17.960;2023-04-19T09:48:01;10.47;;;5.93;;
17725;SDS011;8983;53.156;17.960;2023-04-19T09:50:30;6.37;;;4.90;;
17725;SDS011;8983;53.156;17.960;2023-04-19T09:53:07;6.60;;;4.57;;
17725;SDS011;8983;53.156;17.960;2023-04-19T09:55:37;9.00;;;4.70;;
17725;SDS011;8983;53.156;17.960;2023-04-19T09:58:25;9.50;;;4.83;;
17725;SDS011;8983;53.156;17.960;2023-04-19T10:01:03;8.00;;;4.77;;
17725;SDS011;8983;53.156;17.960;2023-04-19T10:03:43;7.70;;;4.83;;
17725;SDS011;8983;53.156;17.960;2023-04-19T10:06:14;7.13;;;4.33;;
17725;SDS011;8983;53.156;17.960;2023-04-19T10:09:03;9.67;;;4.90;;
17725;SDS011;8983;53.156;17.960;2023-04-19T10:11:32;6.80;;;5.00;;
17725;SDS011;8983;53.156;17.960;2023-04-19T10:14:11;10.70;;;4.53;;
17725;SDS011;8983;53.156;17.960;2023-04-19T10:16:44;6.10;;;4.97;;
17725;SDS011;8983;53.156;17.960;2023-04-19T10:19:15;6.97;;;4.60;;
17725;SDS011;8983;53.156;17.960;2023-04-19T10:21:45;6.43;;;4.60;;
17725;SDS011;8983;53.156;17.960;2023-04-19T10:24:14;7.70;;;4.70;;
17725;SDS011;8983;53.156;17.960;2023-04-19T10:29:53;6.70;;;5.50;;
17725;SDS011;8983;53.156;17.960;2023-04-19T10:32:22;8.50;;;4.97;;
17725;SDS011;8983;53.156;17.960;2023-04-19T10:34:52;7.57;;;5.10;;
17725;SDS011;8983;53.156;17.960;2023-04-19T10:37:21;7.30;;;5.00;;
17725;SDS011;8983;53.156;17.960;2023-04-19T10:39:51;8.97;;;4.87;;
17725;SDS011;8983;53.156;17.960;2023-04-19T10:42:19;4.87;;;4.20;;
17725;SDS011;8983;53.156;17.960;2023-04-19T10:47:52;6.33;;;5.00;;
17725;SDS011;8983;53.156;17.960;2023-04-19T10:50:22;6.33;;;4.60;;
17725;SDS011;8983;53.156;17.960;2023-04-19T10:52:50;10.33;;;4.83;;
17725;SDS011;8983;53.156;17.960;2023-04-19T10:55:18;6.90;;;4.53;;
17725;SDS011;8983;53.156;17.960;2023-04-19T10:58:02;7.87;;;5.47;;
17725;SDS011;8983;53.156;17.960;2023-04-19T11:00:32;6.30;;;4.20;;
17725;SDS011;8983;53.156;17.960;2023-04-19T11:03:49;6.83;;;4.43;;
17725;SDS011;8983;53.156;17.960;2023-04-19T11:06:17;5.10;;;4.60;;
17725;SDS011;8983;53.156;17.960;2023-04-19T11:08:48;7.90;;;4.90;;
17725;SDS011;8983;53.156;17.960;2023-04-19T11:11:16;6.20;;;4.43;;
17725;SDS011;8983;53.156;17.960;2023-04-19T11:13:45;7.07;;;4.50;;
17725;SDS011;8983;53.156;17.960;2023-04-19T11:16:14;5.23;;;4.27;;
17725;SDS011;8983;53.156;17.960;2023-04-19T11:18:44;6.37;;;4.70;;
17725;SDS011;8983;53.156;17.960;2023-04-19T11:21:13;7.83;;;4.40;;
17725;SDS011;8983;53.156;17.960;2023-04-19T11:23:42;8.43;;;5.20;;
17725;SDS011;8983;53.156;17.960;2023-04-19T11:26:13;6.63;;;4.40;;
17725;SDS011;8983;53.156;17.960;2023-04-19T11:28:41;5.63;;;4.80;;
17725;SDS011;8983;53.156;17.960;2023-04-19T11:31:11;6.80;;;4.80;;
17725;SDS011;8983;53.156;17.960;2023-04-19T11:33:39;4.93;;;4.40;;
17725;SDS011;8983;53.156;17.960;2023-04-19T11:36:10;6.00;;;4.17;;
17725;SDS011;8983;53.156;17.960;2023-04-19T11:38:39;5.30;;;4.27;;
17725;SDS011;8983;53.156;17.960;2023-04-19T11:41:08;5.93;;;4.10;;
17725;SDS011;8983;53.156;17.960;2023-04-19T11:43:36;5.30;;;4.47;;
17725;SDS011;8983;53.156;17.960;2023-04-19T11:46:06;6.30;;;4.83;;
17725;SDS011;8983;53.156;17.960;2023-04-19T11:48:36;6.73;;;4.20;;
17725;SDS011;8983;53.156;17.960;2023-04-19T11:51:04;6.63;;;4.43;;
17725;SDS011;8983;53.156;17.960;2023-04-19T11:53:33;5.70;;;4.13;;
17725;SDS011;8983;53.156;17.960;2023-04-19T11:56:03;6.87;;;4.50;;
17725;SDS011;8983;53.156;17.960;2023-04-19T11:58:35;5.67;;;4.40;;
17725;SDS011;8983;53.156;17.960;2023-04-19T12:01:06;5.60;;;4.07;;
17725;SDS011;8983;53.156;17.960;2023-04-19T12:03:38;6.37;;;4.70;;
17725;SDS011;8983;53.156;17.960;2023-04-19T12:06:12;4.83;;;4.33;;
17725;SDS011;8983;53.156;17.960;2023-04-19T12:08:42;6.17;;;4.17;;
17725;SDS011;8983;53.156;17.960;2023-04-19T12:11:13;6.50;;;4.40;;
17725;SDS011;8983;53.156;17.960;2023-04-19T12:13:43;6.10;;;4.27;;
17725;SDS011;8983;53.156;17.960;2023-04-19T12:16:11;5.93;;;4.50;;
17725;SDS011;8983;53.156;17.960;2023-04-19T12:18:43;6.40;;;4.73;;
17725;SDS011;8983;53.156;17.960;2023-04-19T12:21:26;5.27;;;4.03;;
17725;SDS011;8983;53.156;17.960;2023-04-19T12:23:57;5.53;;;4.63;;
17725;SDS011;8983;53.156;17.960;2023-04-19T12:26:27;6.23;;;4.23;;
17725;SDS011;8983;53.156;17.960;2023-04-19T12:28:58;4.33;;;3.93;;
17725;SDS011;8983;53.156;17.960;2023-04-19T12:31:27;6.03;;;4.33;;
17725;SDS011;8983;53.156;17.960;2023-04-19T12:33:59;5.13;;;4.60;;
17725;SDS011;8983;53.156;17.960;2023-04-19T12:36:27;7.50;;;4.53;;
17725;SDS011;8983;53.156;17.960;2023-04-19T12:38:55;5.67;;;4.63;;
17725;SDS011;8983;53.156;17.960;2023-04-19T12:41:24;6.37;;;5.23;;
17725;SDS011;8983;53.156;17.960;2023-04-19T12:43:52;6.13;;;5.17;;
17725;SDS011;8983;53.156;17.960;2023-04-19T12:46:21;7.20;;;5.23;;
17725;SDS011;8983;53.156;17.960;2023-04-19T12:48:49;7.60;;;5.33;;
17725;SDS011;8983;53.156;17.960;2023-04-19T12:51:17;6.83;;;5.30;;
17725;SDS011;8983;53.156;17.960;2023-04-19T12:53:46;7.37;;;5.20;;
17725;SDS011;8983;53.156;17.960;2023-04-19T12:56:15;7.93;;;5.67;;
17725;SDS011;8983;53.156;17.960;2023-04-19T12:58:43;6.23;;;5.13;;
17725;SDS011;8983;53.156;17.960;2023-04-19T13:01:11;9.10;;;6.20;;
17725;SDS011;8983;53.156;17.960;2023-04-19T13:03:41;9.30;;;6.40;;
17725;SDS011;8983;53.156;17.960;2023-04-19T13:06:09;6.60;;;5.73;;
17725;SDS011;8983;53.156;17.960;2023-04-19T13:08:40;9.60;;;5.67;;
17725;SDS011;8983;53.156;17.960;2023-04-19T13:11:12;7.80;;;6.20;;
17725;SDS011;8983;53.156;17.960;2023-04-19T13:13:42;6.60;;;5.77;;
17725;SDS011;8983;53.156;17.960;2023-04-19T13:16:11;8.73;;;6.17;;
17725;SDS011;8983;53.156;17.960;2023-04-19T13:18:39;8.77;;;6.03;;
17725;SDS011;8983;53.156;17.960;2023-04-19T13:21:08;10.57;;;6.40;;
17725;SDS011;8983;53.156;17.960;2023-04-19T13:23:36;8.50;;;6.33;;
17725;SDS011;8983;53.156;17.960;2023-04-19T13:26:05;8.67;;;6.57;;
17725;SDS011;8983;53.156;17.960;2023-04-19T13:28:33;8.03;;;6.27;;
17725;SDS011;8983;53.156;17.960;2023-04-19T13:31:02;8.77;;;6.10;;
17725;SDS011;8983;53.156;17.960;2023-04-19T13:33:31;8.23;;;6.80;;
17725;SDS011;8983;53.156;17.960;2023-04-19T13:35:59;10.77;;;6.80;;
17725;SDS011;8983;53.156;17.960;2023-04-19T13:38:28;10.93;;;7.23;;
17725;SDS011;8983;53.156;17.960;2023-04-19T13:40:57;8.73;;;6.70;;
17725;SDS011;8983;53.156;17.960;2023-04-19T13:43:26;10.73;;;7.43;;
17725;SDS011;8983;53.156;17.960;2023-04-19T13:45:53;10.73;;;7.13;;
17725;SDS011;8983;53.156;17.960;2023-04-19T13:48:22;10.33;;;6.87;;
17725;SDS011;8983;53.156;17.960;2023-04-19T13:50:52;13.63;;;7.33;;
17725;SDS011;8983;53.156;17.960;2023-04-19T13:53:21;11.13;;;7.77;;
17725;SDS011;8983;53.156;17.960;2023-04-19T13:55:53;8.93;;;6.73;;
17725;SDS011;8983;53.156;17.960;2023-04-19T13:58:22;9.87;;;7.40;;
17725;SDS011;8983;53.156;17.960;2023-04-19T14:00:51;9.07;;;7.23;;
17725;SDS011;8983;53.156;17.960;2023-04-19T14:03:20;11.10;;;8.10;;
17725;SDS011;8983;53.156;17.960;2023-04-19T14:05:49;10.20;;;7.27;;
17725;SDS011;8983;53.156;17.960;2023-04-19T14:08:17;10.50;;;7.63;;
17725;SDS011;8983;53.156;17.960;2023-04-19T14:10:46;9.70;;;7.70;;
17725;SDS011;8983;53.156;17.960;2023-04-19T14:13:16;11.47;;;7.97;;
17725;SDS011;8983;53.156;17.960;2023-04-19T14:15:44;10.67;;;8.03;;
17725;SDS011;8983;53.156;17.960;2023-04-19T14:18:12;10.00;;;8.00;;
17725;SDS011;8983;53.156;17.960;2023-04-19T14:20:40;12.53;;;8.17;;
17725;SDS011;8983;53.156;17.960;2023-04-19T14:23:08;10.47;;;7.83;;
17725;SDS011;8983;53.156;17.960;2023-04-19T14:25:37;9.77;;;7.90;;
17725;SDS011;8983;53.156;17.960;2023-04-19T14:28:05;8.37;;;7.47;;
17725;SDS011;8983;53.156;17.960;2023-04-19T14:30:34;10.90;;;8.30;;
17725;SDS011;8983;53.156;17.960;2023-04-19T14:33:03;11.47;;;7.40;;
17725;SDS011;8983;53.156;17.960;2023-04-19T14:35:31;9.07;;;7.33;;
17725;SDS011;8983;53.156;17.960;2023-04-19T14:37:59;8.70;;;6.43;;
17725;SDS011;8983;53.156;17.960;2023-04-19T14:40:27;10.57;;;7.17;;
17725;SDS011;8983;53.156;17.960;2023-04-19T14:42:55;10.93;;;8.13;;
17725;SDS011;8983;53.156;17.960;2023-04-19T14:45:23;13.87;;;8.03;;
17725;SDS011;8983;53.156;17.960;2023-04-19T14:47:52;9.73;;;6.97;;
17725;SDS011;8983;53.156;17.960;2023-04-19T14:50:20;9.43;;;7.70;;
17725;SDS011;8983;53.156;17.960;2023-04-19T14:52:48;10.67;;;7.40;;
17725;SDS011;8983;53.156;17.960;2023-04-19T14:55:16;10.30;;;7.67;;
17725;SDS011;8983;53.156;17.960;2023-04-19T14:57:44;11.00;;;7.77;;
17725;SDS011;8983;53.156;17.960;2023-04-19T15:00:13;8.73;;;7.03;;
17725;SDS011;8983;53.156;17.960;2023-04-19T15:02:41;9.07;;;7.23;;
17725;SDS011;8983;53.156;17.960;2023-04-19T15:05:11;9.10;;;7.13;;
17725;SDS011;8983;53.156;17.960;2023-04-19T15:07:39;8.70;;;7.00;;
17725;SDS011;8983;53.156;17.960;2023-04-19T15:10:08;8.47;;;6.77;;